createdAt,value
2023-05-13T00:01:09.349Z,98297.50
2023-05-13T00:06:30.075Z,98294.22
2023-05-13T00:08:57.017Z,98291.19
2023-05-13T00:21:34.014Z,98294.53
2023-05-13T00:24:01.584Z,98289.06
2023-05-13T00:26:28.295Z,98295.06
2023-05-13T00:28:55.009Z,98298.78
2023-05-13T00:31:21.927Z,98295.06
2023-05-13T00:33:48.646Z,98298.53
2023-05-13T00:38:48.845Z,98298.13
2023-05-13T00:41:15.763Z,98295.41
2023-05-13T00:43:42.655Z,98301.63
2023-05-13T00:46:09.556Z,98300.09
2023-05-13T00:48:36.394Z,98299.25
2023-05-13T00:51:03.111Z,98299.25
2023-05-13T00:53:32.694Z,98295.97
2023-05-13T00:55:59.511Z,98290.81
2023-05-13T00:58:26.169Z,98292.28
2023-05-13T01:00:57.986Z,98300.22
2023-05-13T01:03:39.294Z,98290.00
2023-05-13T01:06:18.689Z,98292.38
2023-05-13T01:08:57.161Z,98298.00
2023-05-13T01:11:28.866Z,98290.69
2023-05-13T01:14:03.791Z,98284.97
2023-05-13T01:16:36.205Z,98296.97
2023-05-13T01:19:38.576Z,98296.63
2023-05-13T01:22:05.902Z,98298.28
2023-05-13T01:27:08.898Z,98298.94
2023-05-13T01:29:35.932Z,98304.44
2023-05-13T01:32:03.589Z,98305.50
2023-05-13T01:34:32.011Z,98302.88
2023-05-13T01:37:00.250Z,98305.84
2023-05-13T01:39:28.820Z,98306.56
2023-05-13T01:54:59.035Z,98304.13
2023-05-13T01:57:25.833Z,98300.38
2023-05-13T01:59:53.266Z,98310.50
2023-05-13T02:02:19.923Z,98300.09
2023-05-13T02:04:46.613Z,98297.53
2023-05-13T02:07:13.238Z,98300.72
2023-05-13T02:09:40.008Z,98305.09
2023-05-13T02:12:07.170Z,98309.66
2023-05-13T02:14:33.999Z,98310.91
2023-05-13T02:17:00.649Z,98303.47
2023-05-13T02:19:27.293Z,98303.47
2023-05-13T02:21:53.902Z,98312.09
2023-05-13T02:24:21.542Z,98314.44
2023-05-13T02:26:48.295Z,98309.06
2023-05-13T02:29:14.904Z,98310.56
2023-05-13T02:31:43.506Z,98303.97
2023-05-13T02:34:10.227Z,98310.63
2023-05-13T02:36:36.818Z,98309.38
2023-05-13T02:39:03.808Z,98312.97
2023-05-13T02:41:30.458Z,98307.50
2023-05-13T02:43:57.158Z,98301.69
2023-05-13T02:46:23.852Z,98305.97
2023-05-13T02:48:50.456Z,98309.81
2023-05-13T02:51:17.124Z,98305.16
2023-05-13T02:56:16.562Z,98310.41
2023-05-13T02:58:43.262Z,98314.22
2023-05-13T03:01:10.000Z,98308.50
2023-05-13T03:03:36.764Z,98309.19
2023-05-13T03:06:03.803Z,98315.03
2023-05-13T03:08:30.476Z,98321.78
2023-05-13T03:13:29.759Z,98313.03
2023-05-13T03:18:35.618Z,98317.88
2023-05-13T03:21:02.318Z,98315.28
2023-05-13T03:23:29.051Z,98318.00
2023-05-13T03:25:55.856Z,98322.41
2023-05-13T03:28:22.507Z,98322.00
2023-05-13T03:30:49.207Z,98325.50
2023-05-13T03:33:15.940Z,98323.38
2023-05-13T03:35:42.603Z,98323.69
2023-05-13T03:38:09.295Z,98326.84
2023-05-13T03:40:35.944Z,98323.38
2023-05-13T03:43:02.562Z,98322.00
2023-05-13T03:45:29.196Z,98327.63
2023-05-13T03:47:56.523Z,98326.22
2023-05-13T03:50:23.606Z,98320.00
2023-05-13T03:52:50.600Z,98326.69
2023-05-13T03:55:17.247Z,98332.88
2023-05-13T03:57:47.641Z,98328.31
2023-05-13T04:00:14.978Z,98328.38
2023-05-13T04:02:41.970Z,98335.97
2023-05-13T04:05:09.748Z,98336.19
2023-05-13T04:07:36.591Z,98336.59
2023-05-13T04:10:03.478Z,98337.41
2023-05-13T04:12:31.119Z,98327.72
2023-05-13T04:14:57.813Z,98344.94
2023-05-13T04:17:25.014Z,98346.16
2023-05-13T04:19:55.380Z,98338.06
2023-05-13T04:22:22.231Z,98356.47
2023-05-13T04:24:52.162Z,98348.69
2023-05-13T04:27:18.936Z,98348.13
2023-05-13T04:29:45.657Z,98353.56
2023-05-13T04:32:16.273Z,98350.25
2023-05-13T04:34:42.962Z,98360.34
2023-05-13T04:37:09.669Z,98363.66
2023-05-13T04:39:36.331Z,98372.22
2023-05-13T04:42:03.035Z,98367.22
2023-05-13T04:44:29.744Z,98366.75
2023-05-13T04:46:56.382Z,98371.91
2023-05-13T04:49:23.067Z,98372.03
2023-05-13T04:51:50.295Z,98374.78
2023-05-13T04:54:17.387Z,98375.88
2023-05-13T04:59:21.220Z,98361.91
2023-05-13T05:01:48.008Z,98368.13
2023-05-13T05:04:14.981Z,98374.03
2023-05-13T05:09:13.012Z,98382.28
2023-05-13T05:11:39.774Z,98380.75
2023-05-13T05:14:06.399Z,98385.56
2023-05-13T05:16:33.037Z,98386.81
2023-05-13T05:18:59.690Z,98382.06
2023-05-13T05:21:26.588Z,98393.63
2023-05-13T05:23:53.226Z,98389.56
2023-05-13T05:26:19.939Z,98392.16
2023-05-13T05:28:47.234Z,98393.06
2023-05-13T05:31:14.295Z,98393.78
2023-05-13T05:33:41.562Z,98399.31
2023-05-13T05:36:08.774Z,98402.56
2023-05-13T05:38:35.568Z,98409.44
2023-05-13T05:41:02.239Z,98404.84
2023-05-13T05:43:28.884Z,98404.72
2023-05-13T05:45:55.608Z,98409.88
2023-05-13T05:48:22.266Z,98405.72
2023-05-13T05:53:28.030Z,98405.94
2023-05-13T05:55:54.685Z,98405.25
2023-05-13T05:58:21.321Z,98412.31
2023-05-13T06:00:48.021Z,98426.75
2023-05-13T06:03:14.960Z,98419.88
2023-05-13T06:05:42.484Z,98418.75
2023-05-13T06:08:09.120Z,98408.63
2023-05-13T06:10:35.878Z,98418.75
2023-05-13T06:13:02.613Z,98423.00
2023-05-13T06:18:05.731Z,98429.69
2023-05-13T06:20:33.026Z,98421.47
2023-05-13T06:22:59.666Z,98413.63
2023-05-13T06:25:26.345Z,98421.31
2023-05-13T06:27:52.994Z,98411.53
2023-05-13T06:30:20.011Z,98425.13
2023-05-13T06:33:00.122Z,98425.31
2023-05-13T06:35:28.937Z,98426.31
2023-05-13T06:40:27.043Z,98418.78
2023-05-13T06:42:53.720Z,98423.47
2023-05-13T06:45:23.536Z,98420.00
2023-05-13T06:47:51.721Z,98422.56
2023-05-13T06:50:19.085Z,98428.22
2023-05-13T06:52:45.828Z,98428.31
2023-05-13T06:55:12.653Z,98427.91
2023-05-13T06:57:43.354Z,98432.28
2023-05-13T07:00:11.064Z,98430.72
2023-05-13T07:02:37.808Z,98428.66
2023-05-13T07:05:05.215Z,98430.69
2023-05-13T07:07:32.080Z,98425.94
2023-05-13T07:09:58.873Z,98431.59
2023-05-13T07:12:25.690Z,98434.91
2023-05-13T07:14:52.511Z,98433.69
2023-05-13T07:17:19.219Z,98427.44
2023-05-13T07:19:46.007Z,98439.38
2023-05-13T07:24:44.575Z,98430.16
2023-05-13T07:29:44.324Z,98443.31
2023-05-13T07:32:10.942Z,98438.75
2023-05-13T07:34:37.855Z,98440.88
2023-05-13T07:37:05.155Z,98439.56
2023-05-13T07:39:31.858Z,98440.66
2023-05-13T07:41:58.863Z,98441.03
2023-05-13T07:44:26.163Z,98434.69
2023-05-13T07:46:53.863Z,98432.50
2023-05-13T07:49:21.346Z,98436.06
2023-05-13T07:51:48.094Z,98438.03
2023-05-13T07:54:14.774Z,98436.78
2023-05-13T07:56:44.395Z,98435.94
2023-05-13T07:59:11.169Z,98447.44
2023-05-13T08:01:38.211Z,98449.31
2023-05-13T08:04:05.296Z,98443.53
2023-05-13T08:06:32.841Z,98438.94
2023-05-13T08:08:59.922Z,98448.28
2023-05-13T08:11:26.639Z,98444.44
2023-05-13T08:13:53.319Z,98446.13
2023-05-13T08:16:20.074Z,98448.84
2023-05-13T08:18:46.768Z,98445.94
2023-05-13T08:21:13.453Z,98450.41
2023-05-13T08:23:45.308Z,98451.03
2023-05-13T08:26:12.920Z,98449.53
2023-05-13T08:28:39.746Z,98450.78
2023-05-13T08:33:47.705Z,98454.56
2023-05-13T08:38:47.968Z,98455.03
2023-05-13T08:41:15.777Z,98460.22
2023-05-13T08:43:47.203Z,98458.75
2023-05-13T08:46:17.227Z,98458.66
2023-05-13T08:48:44.900Z,98460.19
2023-05-13T08:51:12.649Z,98460.09
2023-05-13T08:53:41.051Z,98464.91
2023-05-13T08:56:09.402Z,98461.75
2023-05-13T09:01:15.358Z,98464.88
2023-05-13T09:03:57.922Z,98458.75
2023-05-13T09:06:24.615Z,98461.59
2023-05-13T09:08:51.626Z,98460.66
2023-05-13T09:11:18.433Z,98459.09
2023-05-13T09:13:45.130Z,98463.44
2023-05-13T09:16:14.388Z,98465.13
2023-05-13T09:18:42.380Z,98461.66
2023-05-13T09:21:32.663Z,98466.38
2023-05-13T09:24:21.554Z,98467.50
2023-05-13T09:26:50.658Z,98464.31
2023-05-13T09:29:18.563Z,98459.53
2023-05-13T09:31:53.135Z,98459.88
2023-05-13T09:34:27.026Z,98464.69
2023-05-13T09:37:19.705Z,98463.63
2023-05-13T09:39:46.613Z,98458.25
2023-05-13T09:42:19.618Z,98457.88
2023-05-13T09:44:46.998Z,98471.13
2023-05-13T09:47:15.172Z,98466.84
2023-05-13T09:49:43.067Z,98464.69
2023-05-13T09:52:12.673Z,98472.75
2023-05-13T09:57:17.809Z,98473.88
2023-05-13T09:59:44.478Z,98468.03
2023-05-13T10:02:15.438Z,98473.81
2023-05-13T10:04:43.159Z,98474.34
2023-05-13T10:07:11.801Z,98475.19
2023-05-13T10:09:39.719Z,98483.72
2023-05-13T10:12:08.024Z,98482.88
2023-05-13T10:14:38.810Z,98484.50
2023-05-13T10:19:38.017Z,98477.94
2023-05-13T10:22:05.981Z,98479.91
2023-05-13T10:24:33.337Z,98490.41
2023-05-13T10:27:02.143Z,98480.63
2023-05-13T10:29:29.223Z,98472.06
2023-05-13T10:31:56.213Z,98482.16
2023-05-13T10:34:24.620Z,98483.00
2023-05-13T10:37:28.822Z,98477.56
2023-05-13T10:40:34.475Z,98490.06
2023-05-13T10:43:21.894Z,98479.06
2023-05-13T10:45:51.517Z,98481.50
2023-05-13T10:48:19.096Z,98470.56
2023-05-13T10:51:05.837Z,98476.09
2023-05-13T10:53:37.786Z,98476.91
2023-05-13T10:56:08.143Z,98473.81
2023-05-13T10:58:38.325Z,98480.16
2023-05-13T11:01:16.713Z,98477.72
2023-05-13T11:03:54.893Z,98478.91
2023-05-13T11:06:24.085Z,98474.88
2023-05-13T11:08:54.999Z,98473.72
2023-05-13T11:11:23.951Z,98482.38
2023-05-13T11:14:27.267Z,98470.56
2023-05-13T11:17:00.019Z,98465.84
2023-05-13T11:19:31.959Z,98463.56
2023-05-13T11:22:05.669Z,98471.16
2023-05-13T11:24:32.357Z,98470.00
2023-05-13T11:26:59.989Z,98462.13
2023-05-13T11:29:34.826Z,98470.00
2023-05-13T11:32:03.433Z,98469.22
2023-05-13T11:34:31.400Z,98470.78
2023-05-13T11:37:03.757Z,98475.50
2023-05-13T11:39:31.466Z,98473.53
2023-05-13T11:42:01.535Z,98473.44
2023-05-13T11:44:28.683Z,98472.25
2023-05-13T11:46:57.203Z,98473.41
2023-05-13T11:49:30.975Z,98476.88
2023-05-13T11:51:59.683Z,98471.72
2023-05-13T11:54:26.544Z,98479.94
2023-05-13T11:56:53.252Z,98469.75
2023-05-13T11:59:20.406Z,98479.16
2023-05-13T12:01:58.904Z,98475.28
2023-05-13T12:04:31.495Z,98475.31
2023-05-13T12:06:58.418Z,98467.81
2023-05-13T12:09:25.725Z,98469.78
2023-05-13T12:11:54.016Z,98478.50
2023-05-13T12:14:21.754Z,98479.25
2023-05-13T12:16:49.037Z,98481.63
2023-05-13T12:19:15.840Z,98480.06
2023-05-13T12:21:42.566Z,98479.69
2023-05-13T12:24:19.568Z,98478.53
2023-05-13T12:26:46.410Z,98481.28
2023-05-13T12:29:13.130Z,98480.91
2023-05-13T12:31:42.722Z,98472.72
2023-05-13T12:34:10.054Z,98468.00
2023-05-13T12:36:38.642Z,98482.94
2023-05-13T12:39:10.050Z,98484.53
2023-05-13T12:41:38.730Z,98476.28
2023-05-13T12:44:09.651Z,98484.06
2023-05-13T12:46:37.327Z,98474.84
2023-05-13T12:49:06.034Z,98469.53
2023-05-13T12:51:36.005Z,98464.81
2023-05-13T12:59:05.993Z,98476.94
2023-05-13T13:01:32.882Z,98479.38
2023-05-13T13:03:59.694Z,98479.41
2023-05-13T13:06:26.488Z,98488.06
2023-05-13T13:08:53.141Z,98489.66
2023-05-13T13:11:19.892Z,98482.56
2023-05-13T13:13:47.227Z,98479.41
2023-05-13T13:16:14.476Z,98488.03
2023-05-13T13:18:42.219Z,98480.19
2023-05-13T13:21:10.289Z,98478.66
2023-05-13T13:23:37.100Z,98480.97
2023-05-13T13:26:04.203Z,98476.22
2023-05-13T13:28:31.919Z,98481.28
2023-05-13T13:31:00.234Z,98467.94
2023-05-13T13:33:27.042Z,98467.94
2023-05-13T13:35:53.788Z,98466.72
2023-05-13T13:38:20.533Z,98467.56
2023-05-13T13:40:47.170Z,98457.75
2023-05-13T13:43:13.873Z,98458.97
2023-05-13T13:45:40.851Z,98462.91
2023-05-13T13:48:07.571Z,98456.25
2023-05-13T13:50:34.348Z,98447.19
2023-05-13T13:53:01.023Z,98447.56
2023-05-13T13:55:27.826Z,98445.63
2023-05-13T13:57:54.540Z,98451.94
2023-05-13T14:00:21.428Z,98451.94
2023-05-13T14:02:48.854Z,98464.50
2023-05-13T14:05:16.289Z,98462.13
2023-05-13T14:07:43.192Z,98460.59
2023-05-13T14:10:10.331Z,98461.75
2023-05-13T14:12:38.387Z,98456.66
2023-05-13T14:15:05.845Z,98453.50
2023-05-13T14:17:33.166Z,98459.00
2023-05-13T14:19:59.871Z,98451.94
2023-05-13T14:22:26.570Z,98448.75
2023-05-13T14:24:53.566Z,98442.47
2023-05-13T14:27:21.855Z,98445.94
2023-05-13T14:29:49.276Z,98444.75
2023-05-13T14:32:16.451Z,98448.72
2023-05-13T14:34:43.494Z,98444.78
2023-05-13T14:37:10.502Z,98448.38
2023-05-13T14:39:37.319Z,98444.84
2023-05-13T14:42:04.465Z,98443.22
2023-05-13T14:47:05.167Z,98441.25
2023-05-13T14:49:31.816Z,98435.72
2023-05-13T14:51:58.484Z,98429.81
2023-05-13T14:54:25.125Z,98421.47
2023-05-13T14:56:52.669Z,98422.34
2023-05-13T14:59:19.569Z,98420.38
2023-05-13T15:01:46.361Z,98418.38
2023-05-13T15:04:13.157Z,98413.97
2023-05-13T15:06:40.320Z,98413.78
2023-05-13T15:09:07.971Z,98413.53
2023-05-13T15:11:34.772Z,98406.69
2023-05-13T15:14:02.011Z,98402.59
2023-05-13T15:16:28.725Z,98407.28
2023-05-13T15:18:55.439Z,98409.34
2023-05-13T15:21:22.111Z,98405.47
2023-05-13T15:23:49.010Z,98409.41
2023-05-13T15:26:15.909Z,98412.16
2023-05-13T15:28:42.566Z,98403.13
2023-05-13T15:31:09.228Z,98402.34
2023-05-13T15:33:36.052Z,98403.13
2023-05-13T15:36:02.752Z,98404.69
2023-05-13T15:38:29.424Z,98400.81
2023-05-13T15:40:56.042Z,98408.25
2023-05-13T15:43:22.735Z,98405.16
2023-05-13T15:45:50.394Z,98404.75
2023-05-13T15:48:18.216Z,98403.59
2023-05-13T15:50:45.054Z,98399.66
2023-05-13T15:53:11.880Z,98392.97
2023-05-13T15:55:39.611Z,98397.28
2023-05-13T15:58:07.143Z,98393.78
2023-05-13T16:00:34.252Z,98393.75
2023-05-13T16:03:01.551Z,98396.91
2023-05-13T16:05:28.396Z,98389.84
2023-05-13T16:07:57.381Z,98386.28
2023-05-13T16:10:24.373Z,98387.50
2023-05-13T16:12:51.760Z,98393.78
2023-05-13T16:15:18.374Z,98383.19
2023-05-13T16:17:45.145Z,98394.19
2023-05-13T16:20:12.308Z,98390.69
2023-05-13T16:22:39.289Z,98385.16
2023-05-13T16:25:08.449Z,98388.28
2023-05-13T16:27:36.452Z,98385.94
2023-05-13T16:30:04.492Z,98385.53
2023-05-13T16:32:31.223Z,98380.03
2023-05-13T16:34:58.302Z,98389.47
2023-05-13T16:37:24.954Z,98391.44
2023-05-13T16:39:51.650Z,98393.78
2023-05-13T16:42:19.725Z,98381.19
2023-05-13T16:44:49.265Z,98386.28
2023-05-13T16:47:16.050Z,98387.47
2023-05-13T16:49:42.891Z,98384.69
2023-05-13T16:52:09.638Z,98389.81
2023-05-13T16:54:36.324Z,98382.34
2023-05-13T16:57:03.030Z,98384.34
2023-05-13T16:59:29.921Z,98385.13
2023-05-13T17:01:56.700Z,98382.00
2023-05-13T17:04:23.387Z,98380.81
2023-05-13T17:06:50.133Z,98378.03
2023-05-13T17:09:16.846Z,98379.66
2023-05-13T17:11:43.499Z,98374.13
2023-05-13T17:16:42.211Z,98373.00
2023-05-13T17:19:09.868Z,98373.34
2023-05-13T17:21:36.682Z,98378.88
2023-05-13T17:24:03.618Z,98376.50
2023-05-13T17:26:30.730Z,98378.06
2023-05-13T17:28:57.390Z,98375.31
2023-05-13T17:31:25.119Z,98373.75
2023-05-13T17:33:51.938Z,98376.50
2023-05-13T17:36:18.778Z,98381.22
2023-05-13T17:38:45.514Z,98375.75
2023-05-13T17:41:12.156Z,98375.75
2023-05-13T17:43:38.781Z,98371.03
2023-05-13T17:46:05.461Z,98372.59
2023-05-13T17:48:33.341Z,98365.94
2023-05-13T17:51:00.113Z,98377.69
2023-05-13T17:53:26.857Z,98371.03
2023-05-13T17:55:53.990Z,98373.41
2023-05-13T17:58:21.004Z,98370.25
2023-05-13T18:00:48.643Z,98373.38
2023-05-13T18:03:15.543Z,98370.66
2023-05-13T18:05:42.262Z,98367.09
2023-05-13T18:08:08.871Z,98369.06
2023-05-13T18:10:35.690Z,98372.56
2023-05-13T18:13:03.121Z,98376.06
2023-05-13T18:15:30.118Z,98374.41
2023-05-13T18:17:56.854Z,98377.13
2023-05-13T18:20:23.861Z,98372.34
2023-05-13T18:22:50.784Z,98382.34
2023-05-13T18:25:17.509Z,98381.25
2023-05-13T18:27:44.202Z,98389.91
2023-05-13T18:30:11.614Z,98381.25
2023-05-13T18:32:38.579Z,98383.16
2023-05-13T18:35:06.000Z,98390.19
2023-05-13T18:37:32.668Z,98400.44
2023-05-13T18:39:59.440Z,98394.53
2023-05-13T18:42:26.427Z,98400.00
2023-05-13T18:44:53.194Z,98401.91
2023-05-13T18:47:19.824Z,98408.53
2023-05-13T18:49:46.492Z,98394.81
2023-05-13T18:52:13.207Z,98397.06
2023-05-13T18:54:39.938Z,98394.34
2023-05-13T18:57:06.687Z,98398.75
2023-05-13T18:59:33.346Z,98398.31
2023-05-13T19:02:00.173Z,98402.97
2023-05-13T19:04:27.143Z,98413.53
2023-05-13T19:06:53.959Z,98406.84
2023-05-13T19:09:21.741Z,98411.50
2023-05-13T19:11:48.638Z,98404.38
2023-05-13T19:14:15.412Z,98409.19
2023-05-13T19:16:42.074Z,98410.72
2023-05-13T19:19:08.816Z,98417.31
2023-05-13T19:21:35.510Z,98407.16
2023-05-13T19:24:03.511Z,98413.00
2023-05-13T19:26:30.606Z,98419.16
2023-05-13T19:28:57.307Z,98411.13
2023-05-13T19:31:24.803Z,98419.03
2023-05-13T19:33:51.591Z,98417.78
2023-05-13T19:36:18.237Z,98420.91
2023-05-13T19:38:44.962Z,98419.56
2023-05-13T19:43:49.397Z,98428.78
2023-05-13T19:46:16.134Z,98428.72
2023-05-13T19:48:42.878Z,98431.06
2023-05-13T19:51:09.545Z,98425.69
2023-05-13T19:53:36.507Z,98428.88
2023-05-13T19:56:03.864Z,98422.59
2023-05-13T19:58:30.574Z,98424.03
2023-05-13T20:00:57.237Z,98424.41
2023-05-13T20:03:24.089Z,98431.41
2023-05-13T20:05:51.590Z,98430.09
2023-05-13T20:08:18.207Z,98426.34
2023-05-13T20:10:44.880Z,98422.53
2023-05-13T20:13:11.556Z,98426.78
2023-05-13T20:15:38.210Z,98426.09
2023-05-13T20:18:04.952Z,98436.72
2023-05-13T20:20:31.660Z,98430.50
2023-05-13T20:22:58.280Z,98424.66
2023-05-13T20:25:24.938Z,98431.31
2023-05-13T20:27:51.545Z,98434.88
2023-05-13T20:30:18.553Z,98428.16
2023-05-13T20:32:45.271Z,98432.53
2023-05-13T20:37:43.297Z,98426.66
2023-05-13T20:40:10.268Z,98428.59
2023-05-13T20:42:36.935Z,98426.66
2023-05-13T20:45:04.635Z,98430.56
2023-05-13T20:47:31.534Z,98419.63
2023-05-13T20:49:58.281Z,98423.94
2023-05-13T20:52:25.235Z,98421.94
2023-05-13T20:54:51.913Z,98422.84
2023-05-13T20:57:18.620Z,98422.00
2023-05-13T20:59:45.691Z,98422.78
2023-05-13T21:02:12.376Z,98427.38
2023-05-13T21:04:39.052Z,98426.97
2023-05-13T21:07:06.973Z,98423.44
2023-05-13T21:09:33.991Z,98421.50
2023-05-13T21:12:00.904Z,98413.63
2023-05-13T21:14:27.617Z,98403.13
2023-05-13T21:16:54.248Z,98405.84
2023-05-13T21:19:25.098Z,98396.44
2023-05-13T21:21:51.802Z,98404.97
2023-05-13T21:24:19.491Z,98409.31
2023-05-13T21:26:47.010Z,98413.53
2023-05-13T21:29:13.734Z,98406.94
2023-05-13T21:31:40.553Z,98416.34
2023-05-13T21:34:07.390Z,98411.97
2023-05-13T21:36:34.129Z,98405.06
2023-05-13T21:39:00.867Z,98414.84
2023-05-13T21:41:27.602Z,98406.19
2023-05-13T21:43:54.312Z,98407.19
2023-05-13T21:46:21.008Z,98406.88
2023-05-13T21:48:48.417Z,98402.09
2023-05-13T21:51:15.173Z,98402.59
2023-05-13T21:53:42.858Z,98403.84
2023-05-13T21:56:09.490Z,98397.97
2023-05-13T21:58:36.124Z,98389.84
2023-05-13T22:01:02.919Z,98388.28
2023-05-13T22:03:29.626Z,98394.09
2023-05-13T22:05:56.310Z,98387.50
2023-05-13T22:08:22.973Z,98391.28
2023-05-13T22:10:49.647Z,98390.88
2023-05-13T22:13:17.087Z,98393.66
2023-05-13T22:15:44.043Z,98384.09
2023-05-13T22:18:10.868Z,98389.13
2023-05-13T22:20:37.552Z,98386.75
2023-05-13T22:23:04.284Z,98389.22
2023-05-13T22:25:30.991Z,98384.00
2023-05-13T22:27:57.730Z,98386.66
2023-05-13T22:30:24.871Z,98388.28
2023-05-13T22:32:51.936Z,98377.66
2023-05-13T22:35:18.617Z,98383.50
2023-05-13T22:37:45.415Z,98384.28
2023-05-13T22:40:12.592Z,98383.50
2023-05-13T22:42:39.332Z,98382.66
2023-05-13T22:45:06.788Z,98385.44
2023-05-13T22:47:37.190Z,98387.06
2023-05-13T22:50:04.786Z,98383.56
2023-05-13T22:52:31.476Z,98378.03
2023-05-13T22:57:29.436Z,98383.16
2023-05-13T22:59:56.302Z,98380.41
2023-05-13T23:02:23.887Z,98376.75
2023-05-13T23:04:50.643Z,98374.75
2023-05-13T23:07:17.388Z,98372.91
2023-05-13T23:09:44.170Z,98367.06
2023-05-13T23:12:10.877Z,98356.97
2023-05-13T23:14:37.573Z,98363.22
2023-05-13T23:17:04.368Z,98362.31
2023-05-13T23:19:31.022Z,98365.84
2023-05-13T23:21:57.803Z,98362.28
2023-05-13T23:26:56.305Z,98352.75
2023-05-13T23:29:22.999Z,98356.75
2023-05-13T23:34:21.853Z,98352.44
2023-05-13T23:36:48.543Z,98353.59
2023-05-13T23:39:15.205Z,98343.84
2023-05-13T23:41:42.904Z,98338.81
2023-05-13T23:44:09.779Z,98330.19
2023-05-13T23:46:36.505Z,98330.28
2023-05-13T23:49:03.252Z,98328.72
2023-05-13T23:51:29.982Z,98326.75
2023-05-13T23:53:56.675Z,98326.31
2023-05-13T23:56:23.386Z,98321.25
2023-05-13T23:58:50.058Z,98326.72
